sensor_id;sensor_type;location;lat;lon;timestamp;temperature;humidity
41882;DHT22;27562;47.524;12.404;2022-10-17T00:02:21;10.00;99.90
41882;DHT22;27562;47.524;12.404;2022-10-17T00:04:47;9.90;99.90
41882;DHT22;27562;47.524;12.404;2022-10-17T00:07:12;9.90;99.90
41882;DHT22;27562;47.524;12.404;2022-10-17T00:09:40;9.90;99.90
41882;DHT22;27562;47.524;12.404;2022-10-17T00:12:06;9.80;99.90
41882;DHT22;27562;47.524;12.404;2022-10-17T00:14:32;9.80;99.90
41882;DHT22;27562;47.524;12.404;2022-10-17T00:16:57;9.80;99.90
41882;DHT22;27562;47.524;12.404;2022-10-17T00:19:23;9.70;99.90
41882;DHT22;27562;47.524;12.404;2022-10-17T00:21:49;9.70;99.90
41882;DHT22;27562;47.524;12.404;2022-10-17T00:24:14;9.70;99.90
41882;DHT22;27562;47.524;12.404;2022-10-17T00:26:40;9.60;99.90
41882;DHT22;27562;47.524;12.404;2022-10-17T00:29:05;9.60;99.90
41882;DHT22;27562;47.524;12.404;2022-10-17T00:31:31;9.60;99.90
41882;DHT22;27562;47.524;12.404;2022-10-17T00:33:56;9.60;99.90
41882;DHT22;27562;47.524;12.404;2022-10-17T00:36:23;9.60;99.90
41882;DHT22;27562;47.524;12.404;2022-10-17T00:38:50;9.60;99.90
41882;DHT22;27562;47.524;12.404;2022-10-17T00:41:17;9.60;99.90
41882;DHT22;27562;47.524;12.404;2022-10-17T00:43:56;9.60;99.90
41882;DHT22;27562;47.524;12.404;2022-10-17T00:46:24;9.50;99.90
41882;DHT22;27562;47.524;12.404;2022-10-17T00:48:50;9.50;99.90
41882;DHT22;27562;47.524;12.404;2022-10-17T00:51:16;9.50;99.90
41882;DHT22;27562;47.524;12.404;2022-10-17T00:53:43;9.50;99.90
41882;DHT22;27562;47.524;12.404;2022-10-17T00:56:08;9.50;99.90
41882;DHT22;27562;47.524;12.404;2022-10-17T00:58:34;9.50;99.90
41882;DHT22;27562;47.524;12.404;2022-10-17T01:01:00;9.50;99.90
41882;DHT22;27562;47.524;12.404;2022-10-17T01:03:26;9.40;99.90
41882;DHT22;27562;47.524;12.404;2022-10-17T01:05:51;9.40;99.90
41882;DHT22;27562;47.524;12.404;2022-10-17T01:08:17;9.30;99.90
41882;DHT22;27562;47.524;12.404;2022-10-17T01:13:20;9.20;99.90
41882;DHT22;27562;47.524;12.404;2022-10-17T01:15:57;9.20;99.90
41882;DHT22;27562;47.524;12.404;2022-10-17T01:18:32;9.20;99.90
41882;DHT22;27562;47.524;12.404;2022-10-17T01:26:18;9.10;99.90
41882;DHT22;27562;47.524;12.404;2022-10-17T01:31:35;9.00;99.90
41882;DHT22;27562;47.524;12.404;2022-10-17T01:34:04;9.00;99.90
41882;DHT22;27562;47.524;12.404;2022-10-17T01:39:37;8.90;99.90
41882;DHT22;27562;47.524;12.404;2022-10-17T01:42:11;8.90;99.90
41882;DHT22;27562;47.524;12.404;2022-10-17T01:44:40;8.90;99.90
41882;DHT22;27562;47.524;12.404;2022-10-17T01:47:07;8.90;99.90
41882;DHT22;27562;47.524;12.404;2022-10-17T01:49:34;8.90;99.90
41882;DHT22;27562;47.524;12.404;2022-10-17T01:52:04;8.80;99.90
41882;DHT22;27562;47.524;12.404;2022-10-17T01:59:59;8.70;99.90
41882;DHT22;27562;47.524;12.404;2022-10-17T02:02:25;8.60;99.90
41882;DHT22;27562;47.524;12.404;2022-10-17T02:04:51;8.60;99.90
41882;DHT22;27562;47.524;12.404;2022-10-17T02:07:18;8.60;99.90
41882;DHT22;27562;47.524;12.404;2022-10-17T02:09:43;8.60;99.90
41882;DHT22;27562;47.524;12.404;2022-10-17T02:17:23;8.50;99.90
41882;DHT22;27562;47.524;12.404;2022-10-17T02:20:04;8.40;99.90
41882;DHT22;27562;47.524;12.404;2022-10-17T02:30:02;8.50;99.90
41882;DHT22;27562;47.524;12.404;2022-10-17T02:32:33;8.40;99.90
41882;DHT22;27562;47.524;12.404;2022-10-17T02:35:00;8.40;99.90
41882;DHT22;27562;47.524;12.404;2022-10-17T02:37:27;8.40;99.90
41882;DHT22;27562;47.524;12.404;2022-10-17T02:39:54;8.40;99.90
41882;DHT22;27562;47.524;12.404;2022-10-17T02:42:22;8.30;99.90
41882;DHT22;27562;47.524;12.404;2022-10-17T02:44:49;8.30;99.90
41882;DHT22;27562;47.524;12.404;2022-10-17T02:47:21;8.20;99.90
41882;DHT22;27562;47.524;12.404;2022-10-17T02:49:50;8.10;99.90
41882;DHT22;27562;47.524;12.404;2022-10-17T02:52:26;8.10;99.90
41882;DHT22;27562;47.524;12.404;2022-10-17T02:54:57;8.10;99.90
41882;DHT22;27562;47.524;12.404;2022-10-17T02:58:07;8.10;99.90
41882;DHT22;27562;47.524;12.404;2022-10-17T03:00:13;8.10;99.90
41882;DHT22;27562;47.524;12.404;2022-10-17T03:02:40;8.10;99.90
41882;DHT22;27562;47.524;12.404;2022-10-17T03:05:07;8.10;99.90
41882;DHT22;27562;47.524;12.404;2022-10-17T03:07:32;8.10;99.90
41882;DHT22;27562;47.524;12.404;2022-10-17T03:09:58;8.10;99.90
41882;DHT22;27562;47.524;12.404;2022-10-17T03:12:23;8.10;99.90
41882;DHT22;27562;47.524;12.404;2022-10-17T03:14:49;8.00;99.90
41882;DHT22;27562;47.524;12.404;2022-10-17T03:17:15;8.00;99.90
41882;DHT22;27562;47.524;12.404;2022-10-17T03:19:40;8.00;99.90
41882;DHT22;27562;47.524;12.404;2022-10-17T03:22:06;7.90;99.90
41882;DHT22;27562;47.524;12.404;2022-10-17T03:24:31;7.90;99.90
41882;DHT22;27562;47.524;12.404;2022-10-17T03:26:57;7.80;99.90
41882;DHT22;27562;47.524;12.404;2022-10-17T03:29:22;7.70;99.90
41882;DHT22;27562;47.524;12.404;2022-10-17T03:31:48;7.70;99.90
41882;DHT22;27562;47.524;12.404;2022-10-17T03:34:14;7.70;99.90
41882;DHT22;27562;47.524;12.404;2022-10-17T03:36:41;7.70;99.90
41882;DHT22;27562;47.524;12.404;2022-10-17T03:39:07;7.70;99.90
41882;DHT22;27562;47.524;12.404;2022-10-17T03:41:33;7.70;99.90
41882;DHT22;27562;47.524;12.404;2022-10-17T03:43:59;7.70;99.90
41882;DHT22;27562;47.524;12.404;2022-10-17T03:46:25;7.70;99.90
41882;DHT22;27562;47.524;12.404;2022-10-17T03:48:51;7.70;99.90
41882;DHT22;27562;47.524;12.404;2022-10-17T03:51:16;7.70;99.90
41882;DHT22;27562;47.524;12.404;2022-10-17T03:53:42;7.70;99.90
41882;DHT22;27562;47.524;12.404;2022-10-17T03:56:18;7.70;99.90
41882;DHT22;27562;47.524;12.404;2022-10-17T03:58:44;7.70;99.90
41882;DHT22;27562;47.524;12.404;2022-10-17T04:01:10;7.70;99.90
41882;DHT22;27562;47.524;12.404;2022-10-17T04:03:36;7.70;99.90
41882;DHT22;27562;47.524;12.404;2022-10-17T04:06:04;7.60;99.90
41882;DHT22;27562;47.524;12.404;2022-10-17T04:08:30;7.60;99.90
41882;DHT22;27562;47.524;12.404;2022-10-17T04:10:59;7.60;99.90
41882;DHT22;27562;47.524;12.404;2022-10-17T04:13:25;7.50;99.90
41882;DHT22;27562;47.524;12.404;2022-10-17T04:15:58;7.50;99.90
41882;DHT22;27562;47.524;12.404;2022-10-17T04:18:24;7.50;99.90
41882;DHT22;27562;47.524;12.404;2022-10-17T04:20:49;7.40;99.90
41882;DHT22;27562;47.524;12.404;2022-10-17T04:23:15;7.40;99.90
41882;DHT22;27562;47.524;12.404;2022-10-17T04:25:41;7.40;99.90
41882;DHT22;27562;47.524;12.404;2022-10-17T04:28:06;7.40;99.90
41882;DHT22;27562;47.524;12.404;2022-10-17T04:30:32;7.40;99.90
41882;DHT22;27562;47.524;12.404;2022-10-17T04:32:57;7.40;99.90
41882;DHT22;27562;47.524;12.404;2022-10-17T04:35:23;7.40;99.90
41882;DHT22;27562;47.524;12.404;2022-10-17T04:37:48;7.40;99.90
41882;DHT22;27562;47.524;12.404;2022-10-17T04:40:14;7.40;99.90
41882;DHT22;27562;47.524;12.404;2022-10-17T04:42:40;7.40;99.90
41882;DHT22;27562;47.524;12.404;2022-10-17T04:45:05;7.40;99.90
41882;DHT22;27562;47.524;12.404;2022-10-17T04:47:31;7.30;99.90
41882;DHT22;27562;47.524;12.404;2022-10-17T04:49:57;7.30;99.90
41882;DHT22;27562;47.524;12.404;2022-10-17T04:52:22;7.30;99.90
41882;DHT22;27562;47.524;12.404;2022-10-17T04:54:49;7.30;99.90
41882;DHT22;27562;47.524;12.404;2022-10-17T04:57:15;7.20;99.90
41882;DHT22;27562;47.524;12.404;2022-10-17T04:59:40;7.20;99.90
41882;DHT22;27562;47.524;12.404;2022-10-17T05:02:06;7.20;99.90
41882;DHT22;27562;47.524;12.404;2022-10-17T05:04:32;7.20;99.90
41882;DHT22;27562;47.524;12.404;2022-10-17T05:06:57;7.10;99.90
41882;DHT22;27562;47.524;12.404;2022-10-17T05:09:23;7.10;99.90
41882;DHT22;27562;47.524;12.404;2022-10-17T05:11:48;7.20;99.90
41882;DHT22;27562;47.524;12.404;2022-10-17T05:14:14;7.20;99.90
41882;DHT22;27562;47.524;12.404;2022-10-17T05:16:40;7.20;99.90
41882;DHT22;27562;47.524;12.404;2022-10-17T05:19:05;7.20;99.90
41882;DHT22;27562;47.524;12.404;2022-10-17T05:21:31;7.20;99.90
41882;DHT22;27562;47.524;12.404;2022-10-17T05:23:57;7.30;99.90
41882;DHT22;27562;47.524;12.404;2022-10-17T05:26:23;7.30;99.90
41882;DHT22;27562;47.524;12.404;2022-10-17T05:28:48;7.20;99.90
41882;DHT22;27562;47.524;12.404;2022-10-17T05:31:16;7.20;99.90
41882;DHT22;27562;47.524;12.404;2022-10-17T05:33:42;7.10;99.90
41882;DHT22;27562;47.524;12.404;2022-10-17T05:36:08;7.10;99.90
41882;DHT22;27562;47.524;12.404;2022-10-17T05:38:33;7.00;99.90
41882;DHT22;27562;47.524;12.404;2022-10-17T05:41:00;7.10;99.90
41882;DHT22;27562;47.524;12.404;2022-10-17T05:43:26;7.10;99.90
41882;DHT22;27562;47.524;12.404;2022-10-17T05:45:52;7.00;99.90
41882;DHT22;27562;47.524;12.404;2022-10-17T05:48:17;7.00;99.90
41882;DHT22;27562;47.524;12.404;2022-10-17T05:50:43;7.00;99.90
41882;DHT22;27562;47.524;12.404;2022-10-17T05:53:08;7.00;99.90
41882;DHT22;27562;47.524;12.404;2022-10-17T05:55:34;7.00;99.90
41882;DHT22;27562;47.524;12.404;2022-10-17T05:58:00;7.00;99.90
41882;DHT22;27562;47.524;12.404;2022-10-17T06:00:26;6.90;99.90
41882;DHT22;27562;47.524;12.404;2022-10-17T06:02:51;6.90;99.90
41882;DHT22;27562;47.524;12.404;2022-10-17T06:05:17;6.90;99.90
41882;DHT22;27562;47.524;12.404;2022-10-17T06:07:43;6.90;99.90
41882;DHT22;27562;47.524;12.404;2022-10-17T06:10:09;6.90;99.90
41882;DHT22;27562;47.524;12.404;2022-10-17T06:12:37;6.90;99.90
41882;DHT22;27562;47.524;12.404;2022-10-17T06:15:03;7.00;99.90
41882;DHT22;27562;47.524;12.404;2022-10-17T06:17:28;7.00;99.90
41882;DHT22;27562;47.524;12.404;2022-10-17T06:19:55;7.00;99.90
41882;DHT22;27562;47.524;12.404;2022-10-17T06:22:20;7.10;99.90
41882;DHT22;27562;47.524;12.404;2022-10-17T06:24:46;7.10;99.90
41882;DHT22;27562;47.524;12.404;2022-10-17T06:27:11;7.10;99.90
41882;DHT22;27562;47.524;12.404;2022-10-17T06:29:37;7.10;99.90
41882;DHT22;27562;47.524;12.404;2022-10-17T06:32:02;7.10;99.90
41882;DHT22;27562;47.524;12.404;2022-10-17T06:34:28;7.10;99.90
41882;DHT22;27562;47.524;12.404;2022-10-17T06:36:53;7.20;99.90
41882;DHT22;27562;47.524;12.404;2022-10-17T06:39:19;7.20;99.90
41882;DHT22;27562;47.524;12.404;2022-10-17T06:41:44;7.30;99.90
41882;DHT22;27562;47.524;12.404;2022-10-17T06:44:10;7.30;99.90
41882;DHT22;27562;47.524;12.404;2022-10-17T06:46:39;7.40;99.90
41882;DHT22;27562;47.524;12.404;2022-10-17T06:49:05;7.50;99.90
41882;DHT22;27562;47.524;12.404;2022-10-17T06:51:33;7.60;99.90
41882;DHT22;27562;47.524;12.404;2022-10-17T06:53:59;7.70;99.90
41882;DHT22;27562;47.524;12.404;2022-10-17T06:56:24;7.70;99.90
41882;DHT22;27562;47.524;12.404;2022-10-17T06:58:50;7.90;99.90
41882;DHT22;27562;47.524;12.404;2022-10-17T07:01:17;8.00;99.90
41882;DHT22;27562;47.524;12.404;2022-10-17T07:03:42;8.00;99.90
41882;DHT22;27562;47.524;12.404;2022-10-17T07:06:11;8.20;99.90
41882;DHT22;27562;47.524;12.404;2022-10-17T07:08:36;8.20;99.90
41882;DHT22;27562;47.524;12.404;2022-10-17T07:11:10;8.40;99.90
41882;DHT22;27562;47.524;12.404;2022-10-17T07:13:36;8.50;99.90
41882;DHT22;27562;47.524;12.404;2022-10-17T07:16:01;8.60;99.90
41882;DHT22;27562;47.524;12.404;2022-10-17T07:18:27;8.70;99.90
41882;DHT22;27562;47.524;12.404;2022-10-17T07:20:53;8.80;99.90
41882;DHT22;27562;47.524;12.404;2022-10-17T07:23:19;9.00;99.90
41882;DHT22;27562;47.524;12.404;2022-10-17T07:25:44;9.20;99.90
41882;DHT22;27562;47.524;12.404;2022-10-17T07:28:10;9.30;99.90
41882;DHT22;27562;47.524;12.404;2022-10-17T07:30:35;9.40;99.90
41882;DHT22;27562;47.524;12.404;2022-10-17T07:33:01;9.50;99.90
41882;DHT22;27562;47.524;12.404;2022-10-17T07:35:27;9.60;99.90
41882;DHT22;27562;47.524;12.404;2022-10-17T07:37:52;9.70;99.90
41882;DHT22;27562;47.524;12.404;2022-10-17T07:40:18;9.80;99.90
41882;DHT22;27562;47.524;12.404;2022-10-17T07:42:43;9.80;99.90
41882;DHT22;27562;47.524;12.404;2022-10-17T07:45:09;9.90;99.90
41882;DHT22;27562;47.524;12.404;2022-10-17T07:47:34;10.00;99.90
41882;DHT22;27562;47.524;12.404;2022-10-17T07:50:01;10.10;99.90
41882;DHT22;27562;47.524;12.404;2022-10-17T07:52:26;10.20;99.90
41882;DHT22;27562;47.524;12.404;2022-10-17T07:54:52;10.30;99.90
41882;DHT22;27562;47.524;12.404;2022-10-17T07:57:17;10.50;99.90
41882;DHT22;27562;47.524;12.404;2022-10-17T07:59:43;10.60;99.90
41882;DHT22;27562;47.524;12.404;2022-10-17T08:02:20;10.70;99.90
41882;DHT22;27562;47.524;12.404;2022-10-17T08:04:46;10.80;99.90
41882;DHT22;27562;47.524;12.404;2022-10-17T08:07:12;11.00;99.90
41882;DHT22;27562;47.524;12.404;2022-10-17T08:09:37;11.10;99.90
41882;DHT22;27562;47.524;12.404;2022-10-17T08:12:03;11.30;99.90
41882;DHT22;27562;47.524;12.404;2022-10-17T08:14:29;11.50;99.90
41882;DHT22;27562;47.524;12.404;2022-10-17T08:16:54;11.60;99.90
41882;DHT22;27562;47.524;12.404;2022-10-17T08:19:20;11.80;99.90
41882;DHT22;27562;47.524;12.404;2022-10-17T08:21:45;11.90;99.90
41882;DHT22;27562;47.524;12.404;2022-10-17T08:24:11;12.10;99.90
41882;DHT22;27562;47.524;12.404;2022-10-17T08:26:37;12.20;99.90
41882;DHT22;27562;47.524;12.404;2022-10-17T08:29:02;12.30;99.90
41882;DHT22;27562;47.524;12.404;2022-10-17T08:31:28;12.40;99.90
41882;DHT22;27562;47.524;12.404;2022-10-17T08:33:54;12.50;99.90
41882;DHT22;27562;47.524;12.404;2022-10-17T08:36:19;12.70;99.90
41882;DHT22;27562;47.524;12.404;2022-10-17T08:38:45;12.80;99.90
41882;DHT22;27562;47.524;12.404;2022-10-17T08:41:18;12.80;99.90
41882;DHT22;27562;47.524;12.404;2022-10-17T08:43:50;12.90;99.90
41882;DHT22;27562;47.524;12.404;2022-10-17T08:46:20;13.10;99.90
41882;DHT22;27562;47.524;12.404;2022-10-17T08:48:46;13.20;99.90
41882;DHT22;27562;47.524;12.404;2022-10-17T08:51:22;13.20;99.90
41882;DHT22;27562;47.524;12.404;2022-10-17T08:56:39;13.50;99.90
41882;DHT22;27562;47.524;12.404;2022-10-17T08:59:10;13.60;99.90
41882;DHT22;27562;47.524;12.404;2022-10-17T09:01:55;13.70;99.90
41882;DHT22;27562;47.524;12.404;2022-10-17T09:07:04;14.00;99.90
41882;DHT22;27562;47.524;12.404;2022-10-17T09:12:18;14.10;99.90
41882;DHT22;27562;47.524;12.404;2022-10-17T09:14:51;14.20;99.90
41882;DHT22;27562;47.524;12.404;2022-10-17T09:17:39;14.30;99.90
41882;DHT22;27562;47.524;12.404;2022-10-17T09:20:11;14.40;99.90
41882;DHT22;27562;47.524;12.404;2022-10-17T09:22:40;14.50;99.90
41882;DHT22;27562;47.524;12.404;2022-10-17T09:25:11;14.60;99.90
41882;DHT22;27562;47.524;12.404;2022-10-17T09:27:42;14.70;99.90
41882;DHT22;27562;47.524;12.404;2022-10-17T09:32:50;14.90;99.90
41882;DHT22;27562;47.524;12.404;2022-10-17T09:35:15;15.00;99.90
41882;DHT22;27562;47.524;12.404;2022-10-17T09:37:41;15.10;99.90
41882;DHT22;27562;47.524;12.404;2022-10-17T09:40:16;15.20;99.90
41882;DHT22;27562;47.524;12.404;2022-10-17T09:42:43;15.40;99.90
41882;DHT22;27562;47.524;12.404;2022-10-17T09:45:15;15.50;99.90
41882;DHT22;27562;47.524;12.404;2022-10-17T09:50:24;15.70;99.90
41882;DHT22;27562;47.524;12.404;2022-10-17T09:52:51;15.80;99.90
41882;DHT22;27562;47.524;12.404;2022-10-17T09:57:53;16.00;99.90
41882;DHT22;27562;47.524;12.404;2022-10-17T10:00:26;16.00;99.90
41882;DHT22;27562;47.524;12.404;2022-10-17T10:03:09;16.20;99.90
41882;DHT22;27562;47.524;12.404;2022-10-17T10:05:35;16.30;99.90
41882;DHT22;27562;47.524;12.404;2022-10-17T10:08:01;16.30;99.90
41882;DHT22;27562;47.524;12.404;2022-10-17T10:10:28;16.40;99.90
41882;DHT22;27562;47.524;12.404;2022-10-17T10:13:02;16.60;99.90
41882;DHT22;27562;47.524;12.404;2022-10-17T10:15:32;16.60;99.90
41882;DHT22;27562;47.524;12.404;2022-10-17T10:17:58;16.70;99.90
41882;DHT22;27562;47.524;12.404;2022-10-17T10:20:34;16.80;99.90
41882;DHT22;27562;47.524;12.404;2022-10-17T10:23:04;16.90;99.90
41882;DHT22;27562;47.524;12.404;2022-10-17T10:25:29;17.00;99.90
41882;DHT22;27562;47.524;12.404;2022-10-17T10:27:55;17.10;99.90
41882;DHT22;27562;47.524;12.404;2022-10-17T10:30:26;17.20;99.90
41882;DHT22;27562;47.524;12.404;2022-10-17T10:32:52;17.30;99.90
41882;DHT22;27562;47.524;12.404;2022-10-17T10:35:20;17.40;99.90
41882;DHT22;27562;47.524;12.404;2022-10-17T10:37:47;17.50;99.90
41882;DHT22;27562;47.524;12.404;2022-10-17T10:40:18;17.60;99.90
41882;DHT22;27562;47.524;12.404;2022-10-17T10:42:48;17.70;99.90
41882;DHT22;27562;47.524;12.404;2022-10-17T10:47:49;17.90;99.90
41882;DHT22;27562;47.524;12.404;2022-10-17T10:52:42;18.10;99.90
41882;DHT22;27562;47.524;12.404;2022-10-17T10:55:14;18.10;99.90
41882;DHT22;27562;47.524;12.404;2022-10-17T10:57:40;18.20;99.90
41882;DHT22;27562;47.524;12.404;2022-10-17T11:00:12;18.30;99.90
41882;DHT22;27562;47.524;12.404;2022-10-17T11:02:53;18.40;99.90
41882;DHT22;27562;47.524;12.404;2022-10-17T11:08:11;18.60;99.90
41882;DHT22;27562;47.524;12.404;2022-10-17T11:13:16;18.80;99.90
41882;DHT22;27562;47.524;12.404;2022-10-17T11:15:54;18.80;99.90
41882;DHT22;27562;47.524;12.404;2022-10-17T11:18:23;18.90;99.90
41882;DHT22;27562;47.524;12.404;2022-10-17T11:23:22;19.10;99.90
41882;DHT22;27562;47.524;12.404;2022-10-17T11:25:51;19.10;99.90
41882;DHT22;27562;47.524;12.404;2022-10-17T11:28:18;19.20;99.90
41882;DHT22;27562;47.524;12.404;2022-10-17T11:33:23;19.40;99.90
41882;DHT22;27562;47.524;12.404;2022-10-17T11:35:50;19.50;99.90
41882;DHT22;27562;47.524;12.404;2022-10-17T11:40:49;19.60;99.90
41882;DHT22;27562;47.524;12.404;2022-10-17T11:43:29;19.70;99.90
41882;DHT22;27562;47.524;12.404;2022-10-17T11:46:20;19.80;99.90
41882;DHT22;27562;47.524;12.404;2022-10-17T11:49:05;19.90;99.90
41882;DHT22;27562;47.524;12.404;2022-10-17T11:51:29;20.00;99.90
41882;DHT22;27562;47.524;12.404;2022-10-17T12:01:48;20.40;99.90
41882;DHT22;27562;47.524;12.404;2022-10-17T12:09:39;20.60;99.10
41882;DHT22;27562;47.524;12.404;2022-10-17T12:12:06;20.80;99.50
41882;DHT22;27562;47.524;12.404;2022-10-17T12:19:47;21.00;98.10
41882;DHT22;27562;47.524;12.404;2022-10-17T12:24:43;21.10;99.90
41882;DHT22;27562;47.524;12.404;2022-10-17T12:27:22;21.30;99.20
41882;DHT22;27562;47.524;12.404;2022-10-17T12:29:48;21.40;99.90
41882;DHT22;27562;47.524;12.404;2022-10-17T12:32:14;21.50;98.30
41882;DHT22;27562;47.524;12.404;2022-10-17T12:34:49;21.50;97.10
41882;DHT22;27562;47.524;12.404;2022-10-17T12:37:24;21.60;97.50
41882;DHT22;27562;47.524;12.404;2022-10-17T12:40:01;21.60;97.10
41882;DHT22;27562;47.524;12.404;2022-10-17T12:42:30;21.70;97.80
41882;DHT22;27562;47.524;12.404;2022-10-17T12:44:56;21.80;95.70
41882;DHT22;27562;47.524;12.404;2022-10-17T12:47:35;21.80;94.00
41882;DHT22;27562;47.524;12.404;2022-10-17T12:50:02;21.80;96.00
41882;DHT22;27562;47.524;12.404;2022-10-17T12:54:58;22.00;96.30
41882;DHT22;27562;47.524;12.404;2022-10-17T13:02:40;22.40;95.40
41882;DHT22;27562;47.524;12.404;2022-10-17T13:05:10;22.50;94.90
41882;DHT22;27562;47.524;12.404;2022-10-17T13:07:39;22.60;95.10
41882;DHT22;27562;47.524;12.404;2022-10-17T13:10:06;22.70;93.00
41882;DHT22;27562;47.524;12.404;2022-10-17T13:12:33;22.80;92.50
41882;DHT22;27562;47.524;12.404;2022-10-17T13:15:00;22.90;92.40
41882;DHT22;27562;47.524;12.404;2022-10-17T13:17:28;23.00;91.10
41882;DHT22;27562;47.524;12.404;2022-10-17T13:19:55;23.10;89.40
41882;DHT22;27562;47.524;12.404;2022-10-17T13:22:28;23.20;85.00
41882;DHT22;27562;47.524;12.404;2022-10-17T13:25:04;23.30;87.30
41882;DHT22;27562;47.524;12.404;2022-10-17T13:27:32;23.40;84.40
41882;DHT22;27562;47.524;12.404;2022-10-17T13:29:58;23.50;86.00
41882;DHT22;27562;47.524;12.404;2022-10-17T13:32:25;23.60;86.40
41882;DHT22;27562;47.524;12.404;2022-10-17T13:35:10;23.60;85.10
41882;DHT22;27562;47.524;12.404;2022-10-17T13:37:36;23.80;87.70
41882;DHT22;27562;47.524;12.404;2022-10-17T13:40:03;23.80;86.80
41882;DHT22;27562;47.524;12.404;2022-10-17T13:42:30;23.80;86.50
41882;DHT22;27562;47.524;12.404;2022-10-17T13:45:00;23.80;88.70
41882;DHT22;27562;47.524;12.404;2022-10-17T13:47:26;23.80;89.30
41882;DHT22;27562;47.524;12.404;2022-10-17T13:49:52;23.90;89.40
41882;DHT22;27562;47.524;12.404;2022-10-17T13:52:20;23.90;88.60
41882;DHT22;27562;47.524;12.404;2022-10-17T13:54:47;23.90;89.90
41882;DHT22;27562;47.524;12.404;2022-10-17T13:57:28;23.90;88.10
41882;DHT22;27562;47.524;12.404;2022-10-17T13:59:55;23.90;88.40
41882;DHT22;27562;47.524;12.404;2022-10-17T14:02:23;23.90;88.10
41882;DHT22;27562;47.524;12.404;2022-10-17T14:07:37;23.90;85.30
41882;DHT22;27562;47.524;12.404;2022-10-17T14:10:04;23.90;83.00
41882;DHT22;27562;47.524;12.404;2022-10-17T14:12:31;23.90;83.10
41882;DHT22;27562;47.524;12.404;2022-10-17T14:14:57;23.90;83.00
41882;DHT22;27562;47.524;12.404;2022-10-17T14:17:25;23.90;83.40
41882;DHT22;27562;47.524;12.404;2022-10-17T14:20:33;23.90;82.10
41882;DHT22;27562;47.524;12.404;2022-10-17T14:22:40;23.90;81.20
41882;DHT22;27562;47.524;12.404;2022-10-17T14:25:25;23.90;82.70
41882;DHT22;27562;47.524;12.404;2022-10-17T14:27:52;24.00;85.20
41882;DHT22;27562;47.524;12.404;2022-10-17T14:32:52;23.90;82.80
41882;DHT22;27562;47.524;12.404;2022-10-17T14:35:18;23.90;80.60
41882;DHT22;27562;47.524;12.404;2022-10-17T14:37:45;23.80;78.30
41882;DHT22;27562;47.524;12.404;2022-10-17T14:40:16;23.70;78.00
41882;DHT22;27562;47.524;12.404;2022-10-17T14:42:41;23.60;78.30
41882;DHT22;27562;47.524;12.404;2022-10-17T14:45:10;23.60;79.70
41882;DHT22;27562;47.524;12.404;2022-10-17T14:47:36;23.50;80.00
41882;DHT22;27562;47.524;12.404;2022-10-17T14:52:28;23.40;81.40
41882;DHT22;27562;47.524;12.404;2022-10-17T14:54:55;23.30;83.20
41882;DHT22;27562;47.524;12.404;2022-10-17T14:57:33;23.30;85.70
41882;DHT22;27562;47.524;12.404;2022-10-17T14:59:59;23.20;87.80
41882;DHT22;27562;47.524;12.404;2022-10-17T15:02:27;23.20;89.20
41882;DHT22;27562;47.524;12.404;2022-10-17T15:04:53;23.10;89.80
41882;DHT22;27562;47.524;12.404;2022-10-17T15:07:19;23.00;89.90
41882;DHT22;27562;47.524;12.404;2022-10-17T15:09:46;22.90;90.20
41882;DHT22;27562;47.524;12.404;2022-10-17T15:12:13;22.80;90.30
41882;DHT22;27562;47.524;12.404;2022-10-17T15:14:39;22.60;90.90
41882;DHT22;27562;47.524;12.404;2022-10-17T15:17:10;22.50;91.60
41882;DHT22;27562;47.524;12.404;2022-10-17T15:19:36;22.30;92.50
41882;DHT22;27562;47.524;12.404;2022-10-17T15:22:02;22.10;92.60
41882;DHT22;27562;47.524;12.404;2022-10-17T15:24:27;21.90;92.90
41882;DHT22;27562;47.524;12.404;2022-10-17T15:26:53;21.80;93.10
41882;DHT22;27562;47.524;12.404;2022-10-17T15:29:19;21.70;93.20
41882;DHT22;27562;47.524;12.404;2022-10-17T15:31:44;21.60;93.10
41882;DHT22;27562;47.524;12.404;2022-10-17T15:34:10;21.50;93.20
41882;DHT22;27562;47.524;12.404;2022-10-17T15:36:38;21.30;93.40
41882;DHT22;27562;47.524;12.404;2022-10-17T15:39:04;21.10;94.00
41882;DHT22;27562;47.524;12.404;2022-10-17T15:41:30;20.90;94.70
41882;DHT22;27562;47.524;12.404;2022-10-17T15:43:56;20.70;95.00
41882;DHT22;27562;47.524;12.404;2022-10-17T15:46:23;20.60;95.20
41882;DHT22;27562;47.524;12.404;2022-10-17T15:48:49;20.50;95.10
41882;DHT22;27562;47.524;12.404;2022-10-17T15:51:15;20.30;95.00
41882;DHT22;27562;47.524;12.404;2022-10-17T15:53:41;20.10;95.20
41882;DHT22;27562;47.524;12.404;2022-10-17T15:56:07;20.00;95.80
41882;DHT22;27562;47.524;12.404;2022-10-17T15:58:34;19.80;96.30
41882;DHT22;27562;47.524;12.404;2022-10-17T16:01:01;19.60;96.70
41882;DHT22;27562;47.524;12.404;2022-10-17T16:03:27;19.50;97.20
41882;DHT22;27562;47.524;12.404;2022-10-17T16:05:54;19.30;97.90
41882;DHT22;27562;47.524;12.404;2022-10-17T16:08:20;19.20;99.50
41882;DHT22;27562;47.524;12.404;2022-10-17T16:10:45;19.00;99.90
41882;DHT22;27562;47.524;12.404;2022-10-17T16:13:17;18.80;99.90
41882;DHT22;27562;47.524;12.404;2022-10-17T16:15:43;18.60;99.90
41882;DHT22;27562;47.524;12.404;2022-10-17T16:18:09;18.40;99.90
41882;DHT22;27562;47.524;12.404;2022-10-17T16:20:35;18.30;99.90
41882;DHT22;27562;47.524;12.404;2022-10-17T16:23:02;18.30;99.90
41882;DHT22;27562;47.524;12.404;2022-10-17T16:25:28;18.20;99.90
41882;DHT22;27562;47.524;12.404;2022-10-17T16:27:55;18.10;99.90
41882;DHT22;27562;47.524;12.404;2022-10-17T16:30:21;17.90;99.90
41882;DHT22;27562;47.524;12.404;2022-10-17T16:32:47;17.70;99.90
41882;DHT22;27562;47.524;12.404;2022-10-17T16:35:16;17.60;99.90
41882;DHT22;27562;47.524;12.404;2022-10-17T16:37:41;17.50;99.90
41882;DHT22;27562;47.524;12.404;2022-10-17T16:40:07;17.40;99.90
41882;DHT22;27562;47.524;12.404;2022-10-17T16:42:33;17.30;99.90
41882;DHT22;27562;47.524;12.404;2022-10-17T16:44:58;17.20;99.90
41882;DHT22;27562;47.524;12.404;2022-10-17T16:47:24;17.10;99.90
41882;DHT22;27562;47.524;12.404;2022-10-17T16:49:49;17.00;99.90
41882;DHT22;27562;47.524;12.404;2022-10-17T16:52:15;17.00;99.90
41882;DHT22;27562;47.524;12.404;2022-10-17T16:54:40;17.00;99.90
41882;DHT22;27562;47.524;12.404;2022-10-17T16:57:06;16.90;99.90
41882;DHT22;27562;47.524;12.404;2022-10-17T16:59:32;16.70;99.90
41882;DHT22;27562;47.524;12.404;2022-10-17T17:01:57;16.50;99.90
41882;DHT22;27562;47.524;12.404;2022-10-17T17:04:23;16.40;99.90
41882;DHT22;27562;47.524;12.404;2022-10-17T17:06:49;16.30;99.90
41882;DHT22;27562;47.524;12.404;2022-10-17T17:09:14;16.20;99.90